createdAt,value
2023-05-21T00:01:08.099Z,14.10
2023-05-21T00:03:36.069Z,14.10
2023-05-21T00:06:03.951Z,14.00
2023-05-21T00:08:31.098Z,14.10
2023-05-21T00:10:58.022Z,14.00
2023-05-21T00:13:24.777Z,13.90
2023-05-21T00:15:51.660Z,13.90
2023-05-21T00:18:18.472Z,14.10
2023-05-21T00:20:45.759Z,13.90
2023-05-21T00:23:12.729Z,13.90
2023-05-21T00:25:39.481Z,13.90
2023-05-21T00:28:06.326Z,13.70
2023-05-21T00:30:33.148Z,13.80
2023-05-21T00:33:02.490Z,13.80
2023-05-21T00:35:29.598Z,13.80
2023-05-21T00:37:56.444Z,13.70
2023-05-21T00:40:23.221Z,13.80
2023-05-21T00:42:50.017Z,13.80
2023-05-21T00:45:16.895Z,13.90
2023-05-21T00:47:44.257Z,13.80
2023-05-21T00:50:12.230Z,13.80
2023-05-21T00:52:42.080Z,13.80
2023-05-21T00:55:09.848Z,13.80
2023-05-21T00:57:37.232Z,13.80
2023-05-21T01:00:07.546Z,13.80
2023-05-21T01:02:38.095Z,13.80
2023-05-21T01:05:06.836Z,13.80
2023-05-21T01:07:36.071Z,13.80
2023-05-21T01:10:08.128Z,13.80
2023-05-21T01:12:35.799Z,13.80
2023-05-21T01:15:04.028Z,13.70
2023-05-21T01:17:31.878Z,13.70
2023-05-21T01:20:00.081Z,13.70
2023-05-21T01:22:32.444Z,13.70
2023-05-21T01:25:02.610Z,13.60
2023-05-21T01:27:29.443Z,13.60
2023-05-21T01:29:56.822Z,13.60
2023-05-21T01:32:53.579Z,13.60
2023-05-21T01:35:26.214Z,13.60
2023-05-21T01:38:05.875Z,13.60
2023-05-21T01:40:53.258Z,13.60
2023-05-21T01:43:21.424Z,13.60
2023-05-21T01:45:48.706Z,13.60
2023-05-21T01:48:17.443Z,13.60
2023-05-21T01:50:46.171Z,13.60
2023-05-21T01:53:13.045Z,13.60
2023-05-21T01:55:41.866Z,13.60
2023-05-21T01:58:08.713Z,13.60
2023-05-21T02:00:35.406Z,13.60
2023-05-21T02:03:02.262Z,13.60
2023-05-21T02:05:29.020Z,13.60
2023-05-21T02:07:55.721Z,13.50
2023-05-21T02:10:22.456Z,13.50
2023-05-21T02:12:49.171Z,14.60
2023-05-21T02:15:17.930Z,13.60
2023-05-21T02:17:48.178Z,13.60
2023-05-21T02:20:15.553Z,13.60
2023-05-21T02:22:47.233Z,13.50
2023-05-21T02:25:16.071Z,13.50
2023-05-21T02:27:43.542Z,13.60
2023-05-21T02:30:12.094Z,13.60
2023-05-21T02:32:42.558Z,13.60
2023-05-21T02:35:11.959Z,13.60
2023-05-21T02:37:40.493Z,13.60
2023-05-21T02:40:09.717Z,13.50
2023-05-21T02:42:39.314Z,13.50
2023-05-21T02:45:11.329Z,13.50
2023-05-21T02:47:41.319Z,13.50
2023-05-21T02:50:09.361Z,13.60
2023-05-21T02:52:36.423Z,13.50
2023-05-21T02:55:03.224Z,13.70
2023-05-21T02:57:30.010Z,13.70
2023-05-21T02:59:56.720Z,13.60
2023-05-21T03:02:23.806Z,13.60
2023-05-21T03:04:51.370Z,13.60
2023-05-21T03:07:19.203Z,13.50
2023-05-21T03:09:47.004Z,13.60
2023-05-21T03:12:13.983Z,13.60
2023-05-21T03:14:44.133Z,13.60
2023-05-21T03:17:13.899Z,13.60
2023-05-21T03:19:42.081Z,13.60
2023-05-21T03:22:09.483Z,13.60
2023-05-21T03:24:36.671Z,13.60
2023-05-21T03:27:06.292Z,13.60
2023-05-21T03:29:34.043Z,13.50
2023-05-21T03:32:01.913Z,13.60
2023-05-21T03:34:28.878Z,13.60
2023-05-21T03:36:55.609Z,13.60
2023-05-21T03:39:22.500Z,13.60
2023-05-21T03:41:49.254Z,13.50
2023-05-21T03:44:16.233Z,13.50
2023-05-21T03:46:44.992Z,13.50
2023-05-21T03:49:11.827Z,13.50
2023-05-21T03:51:39.527Z,13.60
2023-05-21T03:54:06.249Z,13.60
2023-05-21T03:56:33.021Z,13.60
2023-05-21T03:58:59.780Z,13.50
2023-05-21T04:01:28.308Z,13.50
2023-05-21T04:03:55.393Z,13.60
2023-05-21T04:06:22.722Z,11.10
2023-05-21T04:08:49.736Z,13.50
2023-05-21T04:11:16.862Z,13.60
2023-05-21T04:13:43.573Z,13.60
2023-05-21T04:16:10.798Z,12.40
2023-05-21T04:18:37.600Z,13.60
2023-05-21T04:21:04.561Z,13.70
2023-05-21T04:23:31.370Z,13.80
2023-05-21T04:25:58.079Z,13.80
2023-05-21T04:28:24.829Z,13.80
2023-05-21T04:30:51.627Z,13.80
2023-05-21T04:33:20.237Z,13.80
2023-05-21T04:35:50.252Z,13.90
2023-05-21T04:38:20.738Z,13.90
2023-05-21T04:40:53.002Z,13.90
2023-05-21T04:43:25.802Z,13.80
2023-05-21T04:45:55.867Z,13.90
2023-05-21T04:48:24.791Z,13.90
2023-05-21T04:50:53.487Z,13.90
2023-05-21T04:53:20.647Z,14.00
2023-05-21T04:55:47.467Z,14.00
2023-05-21T04:58:14.680Z,13.20
2023-05-21T05:00:42.251Z,14.10
2023-05-21T05:03:09.224Z,14.10
2023-05-21T05:05:36.359Z,14.20
2023-05-21T05:08:04.077Z,14.30
2023-05-21T05:10:30.788Z,14.30
2023-05-21T05:12:57.552Z,14.40
2023-05-21T05:15:24.344Z,14.30
2023-05-21T05:17:51.302Z,14.40
2023-05-21T05:20:18.324Z,14.50
2023-05-21T05:22:45.068Z,14.50
2023-05-21T05:25:11.891Z,14.60
2023-05-21T05:27:38.783Z,14.60
2023-05-21T05:30:06.610Z,14.60
2023-05-21T05:32:33.407Z,14.60
2023-05-21T05:35:02.195Z,14.60
2023-05-21T05:37:29.332Z,14.80
2023-05-21T05:39:56.248Z,14.90
2023-05-21T05:42:23.032Z,14.90
2023-05-21T05:44:49.800Z,14.80
2023-05-21T05:47:17.136Z,15.00
2023-05-21T05:49:43.840Z,15.00
2023-05-21T05:52:10.777Z,15.00
2023-05-21T05:54:37.521Z,15.10
2023-05-21T05:57:04.492Z,15.20
2023-05-21T05:59:33.762Z,15.20
2023-05-21T06:02:01.389Z,15.30
2023-05-21T06:04:30.134Z,15.40
2023-05-21T06:07:00.585Z,15.40
2023-05-21T06:09:27.400Z,15.50
2023-05-21T06:11:54.415Z,15.60
2023-05-21T06:14:21.125Z,15.60
2023-05-21T06:16:48.018Z,15.80
2023-05-21T06:19:14.834Z,16.00
2023-05-21T06:21:41.591Z,16.10
2023-05-21T06:24:08.363Z,16.20
2023-05-21T06:26:35.076Z,16.10
2023-05-21T06:29:02.540Z,16.20
2023-05-21T06:31:29.319Z,16.10
2023-05-21T06:33:56.299Z,16.20
2023-05-21T06:36:23.158Z,16.30
2023-05-21T06:38:49.864Z,16.60
2023-05-21T06:41:16.592Z,16.80
2023-05-21T06:43:43.284Z,16.90
2023-05-21T06:46:10.094Z,16.90
2023-05-21T06:48:36.945Z,17.00
2023-05-21T06:51:03.822Z,17.60
2023-05-21T06:53:30.554Z,17.80
2023-05-21T06:55:57.233Z,17.90
2023-05-21T06:58:24.077Z,18.10
2023-05-21T07:00:50.973Z,18.10
2023-05-21T07:03:17.967Z,18.00
2023-05-21T07:05:44.773Z,18.00
2023-05-21T07:08:12.351Z,18.10
2023-05-21T07:10:39.180Z,18.20
2023-05-21T07:13:06.050Z,18.30
2023-05-21T07:15:32.864Z,18.40
2023-05-21T07:17:59.733Z,18.60
2023-05-21T07:20:26.511Z,18.80
2023-05-21T07:22:53.197Z,18.60
2023-05-21T07:25:20.127Z,18.50
2023-05-21T07:27:46.870Z,18.90
2023-05-21T07:30:14.548Z,19.10
2023-05-21T07:32:41.395Z,19.40
2023-05-21T07:35:08.585Z,19.60
2023-05-21T07:37:35.334Z,19.50
2023-05-21T07:40:02.142Z,19.80
2023-05-21T07:42:28.873Z,19.80
2023-05-21T07:44:55.803Z,19.80
2023-05-21T07:47:23.512Z,19.80
2023-05-21T07:49:50.439Z,19.40
2023-05-21T07:52:17.228Z,19.50
2023-05-21T07:54:43.995Z,19.40
2023-05-21T07:57:10.922Z,19.30
2023-05-21T07:59:37.791Z,19.50
2023-05-21T08:02:04.804Z,19.30
2023-05-21T08:04:31.550Z,19.20
2023-05-21T08:06:58.583Z,19.20
2023-05-21T08:09:25.841Z,19.00
2023-05-21T08:11:52.576Z,18.90
2023-05-21T08:14:19.350Z,18.90
2023-05-21T08:16:46.705Z,18.80
2023-05-21T08:19:13.474Z,18.90
2023-05-21T08:21:40.411Z,17.90
2023-05-21T08:24:07.552Z,19.00
2023-05-21T08:26:34.315Z,19.00
2023-05-21T08:29:01.099Z,19.00
2023-05-21T08:31:28.209Z,19.00
2023-05-21T08:33:56.495Z,19.10
2023-05-21T08:36:23.707Z,19.20
2023-05-21T08:38:50.804Z,19.50
2023-05-21T08:41:21.755Z,19.30
2023-05-21T08:43:53.567Z,19.60
2023-05-21T08:46:24.082Z,20.00
2023-05-21T08:48:55.057Z,20.20
2023-05-21T08:51:22.496Z,20.20
2023-05-21T08:53:51.047Z,20.10
2023-05-21T08:56:18.301Z,19.90
2023-05-21T08:58:46.723Z,19.80
2023-05-21T09:01:14.171Z,20.10
2023-05-21T09:03:42.054Z,20.10
2023-05-21T09:06:14.264Z,20.00
2023-05-21T09:08:45.914Z,19.80
2023-05-21T09:11:13.705Z,19.90
2023-05-21T09:13:41.752Z,20.00
2023-05-21T09:16:10.069Z,20.20
2023-05-21T09:18:36.825Z,20.30
2023-05-21T09:21:31.347Z,20.30
2023-05-21T09:23:59.465Z,20.40
2023-05-21T09:26:26.626Z,20.30
2023-05-21T09:28:59.228Z,20.50
2023-05-21T09:31:26.894Z,20.80
2023-05-21T09:33:55.499Z,20.60
2023-05-21T09:36:22.741Z,20.80
2023-05-21T09:38:52.081Z,21.20
2023-05-21T09:41:21.979Z,21.50
2023-05-21T09:43:49.514Z,21.80
2023-05-21T09:46:20.606Z,21.50
2023-05-21T09:48:47.368Z,21.00
2023-05-21T09:51:18.370Z,21.10
2023-05-21T09:53:57.833Z,21.40
2023-05-21T09:56:26.933Z,21.60
2023-05-21T09:58:55.026Z,21.80
2023-05-21T10:01:22.123Z,21.80
2023-05-21T10:03:55.183Z,21.80
2023-05-21T10:06:28.484Z,21.70
2023-05-21T10:08:56.900Z,21.90
2023-05-21T10:11:26.993Z,21.70
2023-05-21T10:14:04.137Z,21.50
2023-05-21T10:16:33.576Z,21.40
2023-05-21T10:19:01.208Z,21.50
2023-05-21T10:21:28.668Z,21.50
2023-05-21T10:23:58.532Z,21.60
2023-05-21T10:26:26.381Z,21.90
2023-05-21T10:28:56.446Z,22.00
2023-05-21T10:31:24.283Z,22.10
2023-05-21T10:33:53.052Z,22.10
2023-05-21T10:36:21.879Z,22.20
2023-05-21T10:38:48.806Z,22.00
2023-05-21T10:41:17.805Z,22.30
2023-05-21T10:43:56.436Z,22.50
2023-05-21T10:46:44.645Z,22.50
2023-05-21T10:49:49.001Z,22.70
2023-05-21T10:52:37.677Z,22.80
2023-05-21T10:55:19.667Z,23.00
2023-05-21T10:58:08.033Z,23.00
2023-05-21T11:00:35.229Z,23.30
2023-05-21T11:03:03.379Z,23.60
2023-05-21T11:05:56.417Z,23.80
2023-05-21T11:08:24.478Z,23.80
2023-05-21T11:10:55.726Z,24.00
2023-05-21T11:13:22.476Z,23.90
2023-05-21T11:15:58.341Z,23.80
2023-05-21T11:18:40.282Z,23.40
2023-05-21T11:21:18.136Z,23.40
2023-05-21T11:23:51.012Z,23.50
2023-05-21T11:26:22.511Z,23.50
2023-05-21T11:29:04.353Z,23.70
2023-05-21T11:31:38.751Z,23.70
2023-05-21T11:34:15.464Z,23.70
2023-05-21T11:36:45.945Z,24.10
2023-05-21T11:39:21.800Z,23.90
2023-05-21T11:41:54.391Z,24.10
2023-05-21T11:44:43.718Z,24.00
2023-05-21T11:47:12.744Z,23.80
2023-05-21T11:49:39.570Z,23.70
2023-05-21T11:52:07.658Z,23.80
2023-05-21T11:54:50.491Z,23.90
2023-05-21T11:57:19.281Z,24.00
2023-05-21T11:59:46.786Z,24.00
2023-05-21T12:02:17.645Z,23.90
2023-05-21T12:04:45.503Z,23.70
2023-05-21T12:07:15.718Z,23.70
2023-05-21T12:09:43.944Z,23.90
2023-05-21T12:12:13.419Z,23.90
2023-05-21T12:14:43.292Z,23.90
2023-05-21T12:17:16.601Z,23.90
2023-05-21T12:19:43.923Z,23.90
2023-05-21T12:22:10.872Z,23.70
2023-05-21T12:24:38.498Z,23.90
2023-05-21T12:27:09.718Z,23.90
2023-05-21T12:29:41.623Z,23.90
2023-05-21T12:32:10.282Z,24.10
2023-05-21T12:34:45.716Z,24.20
2023-05-21T12:37:16.938Z,24.20
2023-05-21T12:39:45.111Z,24.10
2023-05-21T12:42:12.896Z,24.10
2023-05-21T12:44:48.502Z,24.30
2023-05-21T12:47:15.412Z,24.20
2023-05-21T12:49:50.337Z,24.20
2023-05-21T12:52:20.436Z,24.10
2023-05-21T12:54:53.729Z,24.10
2023-05-21T12:57:25.090Z,24.10
2023-05-21T12:59:53.101Z,24.30
2023-05-21T13:02:32.068Z,24.50
2023-05-21T13:04:59.602Z,24.40
2023-05-21T13:07:29.148Z,24.60
2023-05-21T13:09:56.625Z,24.50
2023-05-21T13:12:26.483Z,24.70
2023-05-21T13:14:58.296Z,24.80
2023-05-21T13:17:26.264Z,24.70
2023-05-21T13:20:15.553Z,24.70
2023-05-21T13:22:43.654Z,24.60
2023-05-21T13:25:11.622Z,24.60
2023-05-21T13:27:39.147Z,24.60
2023-05-21T13:30:06.873Z,24.60
2023-05-21T13:32:34.589Z,24.60
2023-05-21T13:35:01.448Z,24.70
2023-05-21T13:37:28.381Z,24.70
2023-05-21T13:39:55.154Z,24.70
2023-05-21T13:42:22.465Z,24.80
2023-05-21T13:44:49.724Z,25.00
2023-05-21T13:47:16.887Z,24.80
2023-05-21T13:49:43.648Z,24.80
2023-05-21T13:52:10.489Z,24.80
2023-05-21T13:54:37.273Z,25.00
2023-05-21T13:57:04.394Z,25.00
2023-05-21T13:59:33.346Z,25.10
2023-05-21T14:02:00.878Z,25.20
2023-05-21T14:04:27.826Z,25.10
2023-05-21T14:06:54.941Z,25.20
2023-05-21T14:09:23.369Z,25.10
2023-05-21T14:11:50.822Z,25.20
2023-05-21T14:14:19.085Z,25.20
2023-05-21T14:16:47.879Z,25.10
2023-05-21T14:19:15.135Z,25.10
2023-05-21T14:21:42.146Z,25.00
2023-05-21T14:24:08.918Z,25.10
2023-05-21T14:26:41.037Z,25.00
2023-05-21T14:29:08.007Z,24.90
2023-05-21T14:31:35.231Z,25.10
2023-05-21T14:34:03.046Z,25.10
2023-05-21T14:36:30.113Z,25.40
2023-05-21T14:38:56.909Z,25.40
2023-05-21T14:41:27.477Z,25.40
2023-05-21T14:43:54.615Z,26.60
2023-05-21T14:46:21.747Z,25.60
2023-05-21T14:48:48.520Z,25.70
2023-05-21T14:51:15.362Z,25.50
2023-05-21T14:53:42.328Z,25.50
2023-05-21T14:56:09.250Z,25.50
2023-05-21T14:58:36.093Z,25.50
2023-05-21T15:01:04.182Z,25.40
2023-05-21T15:03:31.304Z,25.40
2023-05-21T15:05:58.674Z,25.30
2023-05-21T15:08:25.541Z,25.20
2023-05-21T15:10:52.355Z,25.20
2023-05-21T15:13:19.146Z,25.20
2023-05-21T15:15:46.069Z,25.30
2023-05-21T15:18:13.089Z,25.20
2023-05-21T15:20:39.857Z,25.30
2023-05-21T15:23:15.893Z,25.30
2023-05-21T15:25:43.270Z,25.30
2023-05-21T15:28:10.219Z,25.40
2023-05-21T15:30:36.913Z,25.60
2023-05-21T15:33:03.733Z,25.50
2023-05-21T15:35:30.611Z,25.60
2023-05-21T15:37:57.372Z,25.70
2023-05-21T15:40:26.136Z,25.80
2023-05-21T15:42:53.757Z,25.80
2023-05-21T15:45:20.596Z,26.00
2023-05-21T15:47:47.527Z,26.20
2023-05-21T15:50:14.374Z,26.10
2023-05-21T15:52:42.132Z,26.30
2023-05-21T15:55:09.621Z,26.30
2023-05-21T15:57:36.365Z,26.20
2023-05-21T16:00:04.887Z,26.20
2023-05-21T16:02:31.840Z,26.30
2023-05-21T16:04:59.530Z,26.20
2023-05-21T16:07:26.280Z,26.10
2023-05-21T16:09:53.064Z,25.80
2023-05-21T16:12:19.788Z,25.60
2023-05-21T16:14:49.806Z,25.50
2023-05-21T16:17:16.971Z,25.40
2023-05-21T16:19:43.852Z,25.20
2023-05-21T16:22:11.043Z,25.20
2023-05-21T16:24:37.906Z,25.20
2023-05-21T16:27:05.063Z,26.60
2023-05-21T16:29:32.123Z,25.30
2023-05-21T16:31:58.920Z,25.30
2023-05-21T16:34:25.881Z,25.30
2023-05-21T16:36:52.690Z,25.30
2023-05-21T16:39:19.401Z,25.30
2023-05-21T16:41:46.195Z,25.20
2023-05-21T16:44:13.007Z,25.10
2023-05-21T16:46:39.761Z,25.00
2023-05-21T16:49:06.529Z,24.70
2023-05-21T16:51:33.250Z,24.40
2023-05-21T16:54:00.138Z,24.20
2023-05-21T16:56:27.573Z,24.00
2023-05-21T16:58:54.335Z,23.70
2023-05-21T17:01:21.173Z,23.50
2023-05-21T17:03:48.098Z,23.30
2023-05-21T17:06:15.039Z,23.20
2023-05-21T17:08:42.657Z,23.10
2023-05-21T17:11:09.480Z,23.00
2023-05-21T17:13:36.308Z,22.90
2023-05-21T17:18:31.187Z,22.90
2023-05-21T17:20:58.872Z,22.80
2023-05-21T17:23:25.734Z,22.70
2023-05-21T17:25:52.648Z,22.60
2023-05-21T17:28:19.592Z,22.40
2023-05-21T17:30:48.727Z,22.30
2023-05-21T17:33:16.396Z,22.20
2023-05-21T17:35:43.312Z,22.00
2023-05-21T17:38:10.344Z,21.80
2023-05-21T17:40:37.202Z,21.70
2023-05-21T17:43:04.858Z,21.50
2023-05-21T17:45:31.898Z,21.40
2023-05-21T17:48:00.525Z,21.20
2023-05-21T17:50:27.818Z,21.20
2023-05-21T17:52:54.599Z,21.00
2023-05-21T17:55:21.376Z,21.00
2023-05-21T17:57:48.203Z,20.90
2023-05-21T18:00:15.271Z,20.80
2023-05-21T18:02:42.277Z,20.80
2023-05-21T18:05:09.267Z,20.70
2023-05-21T18:07:37.715Z,20.70
2023-05-21T18:10:05.034Z,20.70
2023-05-21T18:12:31.797Z,20.70
2023-05-21T18:14:58.684Z,20.70
2023-05-21T18:17:25.966Z,20.70
2023-05-21T18:19:52.838Z,20.70
2023-05-21T18:22:19.740Z,20.70
2023-05-21T18:24:46.436Z,20.80
2023-05-21T18:27:13.490Z,20.80
2023-05-21T18:29:40.463Z,20.80
2023-05-21T18:32:07.777Z,20.70
2023-05-21T18:34:34.895Z,20.70
2023-05-21T18:37:01.806Z,20.70
2023-05-21T18:39:28.675Z,20.70
2023-05-21T18:42:08.844Z,20.60
2023-05-21T18:44:39.391Z,20.60
2023-05-21T18:47:07.576Z,20.50
2023-05-21T18:49:35.948Z,20.50
2023-05-21T18:52:03.986Z,20.40
2023-05-21T18:54:30.973Z,20.40
2023-05-21T18:57:00.218Z,20.20
2023-05-21T18:59:28.612Z,20.30
2023-05-21T19:01:55.465Z,20.10
2023-05-21T19:04:22.515Z,20.10
2023-05-21T19:06:49.523Z,20.10
2023-05-21T19:09:16.529Z,20.00
2023-05-21T19:11:43.444Z,20.00
2023-05-21T19:14:10.206Z,19.90
2023-05-21T19:16:37.086Z,19.90
2023-05-21T19:19:04.256Z,19.80
2023-05-21T19:21:31.563Z,19.90
2023-05-21T19:23:58.807Z,19.90
2023-05-21T19:26:25.886Z,19.90
2023-05-21T19:28:53.396Z,19.90
2023-05-21T19:31:25.177Z,19.80
2023-05-21T19:33:52.181Z,19.80
2023-05-21T19:36:21.025Z,19.80
2023-05-21T19:38:49.121Z,19.70
2023-05-21T19:41:16.837Z,19.70
2023-05-21T19:43:44.376Z,19.70
2023-05-21T19:46:11.382Z,19.70
2023-05-21T19:48:38.395Z,19.70
2023-05-21T19:51:05.466Z,19.70
2023-05-21T19:53:32.238Z,19.80
2023-05-21T19:55:58.990Z,19.80
2023-05-21T19:58:29.233Z,19.80
2023-05-21T20:00:58.315Z,19.80
2023-05-21T20:03:26.538Z,19.80
2023-05-21T20:05:53.567Z,19.80
2023-05-21T20:08:20.398Z,19.80
2023-05-21T20:10:48.829Z,19.80
2023-05-21T20:13:18.033Z,19.80
2023-05-21T20:15:44.852Z,19.80
2023-05-21T20:18:12.665Z,19.70
2023-05-21T20:20:41.428Z,19.70
2023-05-21T20:23:08.508Z,19.70
2023-05-21T20:25:35.278Z,19.60
2023-05-21T20:28:03.418Z,19.50
2023-05-21T20:30:34.301Z,19.50
2023-05-21T20:33:04.031Z,19.40
2023-05-21T20:35:31.076Z,19.40
2023-05-21T20:37:57.896Z,19.40
2023-05-21T20:40:24.786Z,19.30
2023-05-21T20:42:53.479Z,19.30
2023-05-21T20:45:21.091Z,19.30
2023-05-21T20:47:49.643Z,19.30
2023-05-21T20:50:17.707Z,19.30
2023-05-21T20:52:47.061Z,19.20
2023-05-21T20:55:14.738Z,19.20
2023-05-21T20:57:41.986Z,19.20
2023-05-21T21:00:12.484Z,19.20
2023-05-21T21:02:39.373Z,19.10
2023-05-21T21:05:10.011Z,19.10
2023-05-21T21:07:37.385Z,19.00
2023-05-21T21:10:04.793Z,18.90
2023-05-21T21:12:31.534Z,19.00
2023-05-21T21:14:58.230Z,19.00
2023-05-21T21:17:25.011Z,18.90
2023-05-21T21:19:51.862Z,18.90
2023-05-21T21:22:19.816Z,18.90
2023-05-21T21:24:47.453Z,18.80
2023-05-21T21:27:14.278Z,18.80
2023-05-21T21:29:41.069Z,18.80
2023-05-21T21:32:08.065Z,18.80
2023-05-21T21:34:34.831Z,18.80
2023-05-21T21:37:05.381Z,18.80
2023-05-21T21:39:32.093Z,18.70
2023-05-21T21:41:58.854Z,18.70
2023-05-21T21:44:25.614Z,18.60
2023-05-21T21:46:52.338Z,18.60
2023-05-21T21:49:19.079Z,18.60
2023-05-21T21:51:45.928Z,18.60
2023-05-21T21:54:12.744Z,18.50
2023-05-21T21:56:39.592Z,18.50
2023-05-21T21:59:06.439Z,18.50
2023-05-21T22:01:33.509Z,18.60
2023-05-21T22:04:00.345Z,18.50
2023-05-21T22:06:27.768Z,18.50
2023-05-21T22:08:54.780Z,18.50
2023-05-21T22:11:21.942Z,18.60
2023-05-21T22:13:48.811Z,18.60
2023-05-21T22:16:15.616Z,18.60
2023-05-21T22:18:42.418Z,18.60
2023-05-21T22:21:10.354Z,18.60
2023-05-21T22:23:38.283Z,18.60
2023-05-21T22:26:05.854Z,18.60
2023-05-21T22:28:32.972Z,18.50
2023-05-21T22:30:59.824Z,18.50
2023-05-21T22:33:26.832Z,18.40
2023-05-21T22:35:54.425Z,18.30
2023-05-21T22:38:21.467Z,18.30
2023-05-21T22:40:48.417Z,18.30
2023-05-21T22:43:15.260Z,18.30
2023-05-21T22:45:42.231Z,18.20
2023-05-21T22:48:09.604Z,18.20
2023-05-21T22:50:38.245Z,18.10
2023-05-21T22:53:05.713Z,18.00
2023-05-21T22:55:32.488Z,18.00
2023-05-21T22:57:59.277Z,17.90
2023-05-21T23:00:26.559Z,17.90
2023-05-21T23:02:54.533Z,17.80
2023-05-21T23:05:22.211Z,17.80
2023-05-21T23:07:49.204Z,17.90
2023-05-21T23:10:16.060Z,17.90
2023-05-21T23:12:42.828Z,17.80
2023-05-21T23:15:10.980Z,17.90
2023-05-21T23:17:38.684Z,17.90
2023-05-21T23:20:07.061Z,17.90
2023-05-21T23:22:34.211Z,17.90
2023-05-21T23:25:01.125Z,17.90
2023-05-21T23:27:27.847Z,17.90
2023-05-21T23:29:54.602Z,17.90
2023-05-21T23:32:21.434Z,17.80
2023-05-21T23:34:48.272Z,17.70
2023-05-21T23:37:15.199Z,17.70
2023-05-21T23:39:43.517Z,17.70
2023-05-21T23:42:10.695Z,17.70
2023-05-21T23:44:37.533Z,17.60
2023-05-21T23:47:04.527Z,17.60
2023-05-21T23:49:31.208Z,17.60
2023-05-21T23:51:59.058Z,17.60
2023-05-21T23:54:25.943Z,17.50
2023-05-21T23:56:52.665Z,17.60
2023-05-21T23:59:19.500Z,17.50
